createdAt,value
2019-04-16T00:01:00.939Z,93.8323
2019-04-16T00:02:10.012Z,92.3278
2019-04-16T00:03:20.349Z,93.2479
2019-04-16T00:04:31.949Z,93.2418
2019-04-16T00:05:40.299Z,92.8359
2019-04-16T00:06:48.275Z,89.3065
2019-04-16T00:07:56.964Z,87.9606
2019-04-16T00:09:05.919Z,88.4092
2019-04-16T00:10:14.959Z,91.6396
2019-04-16T00:11:23.294Z,92.5597
2019-04-16T00:12:32.940Z,92.1996
2019-04-16T00:13:41.292Z,91.0735
2019-04-16T00:14:50.902Z,91.9341
2019-04-16T00:15:59.944Z,93.4356
2019-04-16T00:17:09.013Z,90.4265
2019-04-16T00:18:18.744Z,85.7588
2019-04-16T00:19:26.891Z,85.9556
2019-04-16T00:20:37.933Z,87.3503
2019-04-16T00:21:46.987Z,87.5105
2019-04-16T00:22:56.016Z,88.0507
2019-04-16T00:24:04.796Z,89.1722
2019-04-16T00:25:13.975Z,91.6304
2019-04-16T00:26:26.580Z,91.3970
2019-04-16T00:27:35.734Z,89.3050
2019-04-16T00:28:44.285Z,89.2592
2019-04-16T00:29:53.005Z,88.0552
2019-04-16T00:31:01.277Z,86.8070
2019-04-16T00:32:10.011Z,88.4916
2019-04-16T00:33:18.920Z,87.3137
2019-04-16T00:34:27.901Z,86.6834
2019-04-16T00:35:36.951Z,87.5334
2019-04-16T00:36:48.419Z,88.4123
2019-04-16T00:37:58.415Z,89.6727
2019-04-16T00:39:06.953Z,89.7765
2019-04-16T00:40:15.910Z,88.4092
2019-04-16T00:41:25.057Z,88.6412
2019-04-16T00:42:34.002Z,89.0776
2019-04-16T00:43:44.083Z,88.4306
2019-04-16T00:44:54.006Z,89.3339
2019-04-16T00:46:03.110Z,90.4311
2019-04-16T00:47:11.967Z,90.2892
2019-04-16T00:48:20.907Z,89.3187
2019-04-16T00:49:31.003Z,89.4209
2019-04-16T00:50:39.301Z,87.6081
2019-04-16T00:51:47.967Z,89.0639
2019-04-16T00:52:56.293Z,89.4240
2019-04-16T00:54:09.891Z,89.8650
2019-04-16T00:55:18.295Z,90.8217
2019-04-16T00:56:26.888Z,91.3527
2019-04-16T00:57:35.950Z,91.9509
2019-04-16T00:58:44.973Z,92.6101
2019-04-16T00:59:56.283Z,91.8563
2019-04-16T01:01:05.264Z,91.6823
2019-04-16T01:02:12.921Z,91.9890
2019-04-16T01:03:21.991Z,92.2820
2019-04-16T01:04:30.968Z,93.2097
2019-04-16T01:05:40.301Z,94.0291
2019-04-16T01:06:48.871Z,94.5785
2019-04-16T01:07:57.297Z,92.1630
2019-04-16T01:09:05.988Z,91.7952
2019-04-16T01:10:13.314Z,91.6899
2019-04-16T01:11:21.971Z,90.0893
2019-04-16T01:12:30.267Z,88.3619
2019-04-16T01:13:38.910Z,88.5039
2019-04-16T01:14:47.973Z,90.0298
2019-04-16T01:15:57.194Z,90.4875
2019-04-16T01:17:05.982Z,89.5171
2019-04-16T01:18:14.302Z,89.6254
2019-04-16T01:19:23.028Z,90.9316
2019-04-16T01:20:31.906Z,90.4646
2019-04-16T01:21:44.517Z,88.8701
2019-04-16T01:22:54.081Z,89.8741
2019-04-16T01:24:02.931Z,90.7942
2019-04-16T01:25:11.970Z,91.8959
2019-04-16T01:26:21.220Z,91.9509
2019-04-16T01:27:29.606Z,91.9570
2019-04-16T01:28:38.016Z,93.2799
2019-04-16T01:29:46.960Z,93.3837
2019-04-16T01:30:55.998Z,92.7672
2019-04-16T01:32:10.292Z,92.0439
2019-04-16T01:33:18.292Z,91.6915
2019-04-16T01:34:26.945Z,92.2530
2019-04-16T01:35:35.306Z,93.0083
2019-04-16T01:36:44.342Z,93.1014
2019-04-16T01:37:56.538Z,93.1609
2019-04-16T01:39:16.087Z,93.6233
2019-04-16T01:40:19.354Z,94.2779
2019-04-16T01:41:27.990Z,94.9172
2019-04-16T01:42:36.952Z,94.5296
2019-04-16T01:43:45.991Z,94.0658
2019-04-16T01:44:54.056Z,94.5739
2019-04-16T01:46:02.609Z,93.5073
2019-04-16T01:47:11.871Z,93.8689
2019-04-16T01:48:19.318Z,92.8344
2019-04-16T01:49:27.933Z,92.5734
2019-04-16T01:50:36.278Z,93.0907
2019-04-16T01:51:47.445Z,95.4208
2019-04-16T01:52:57.265Z,96.6018
2019-04-16T01:54:05.928Z,96.7346
2019-04-16T01:55:15.057Z,95.5550
2019-04-16T01:56:27.976Z,95.4116
2019-04-16T01:57:36.281Z,96.4477
2019-04-16T01:58:44.335Z,96.7407
2019-04-16T01:59:53.887Z,96.9467
2019-04-16T02:01:02.364Z,96.7224
2019-04-16T02:02:14.579Z,95.1247
2019-04-16T02:03:24.979Z,93.3715
2019-04-16T02:04:33.781Z,93.2158
2019-04-16T02:05:42.982Z,92.1355
2019-04-16T02:06:54.308Z,90.5867
2019-04-16T02:08:05.329Z,92.0790
2019-04-16T02:09:22.501Z,92.8222
2019-04-16T02:10:26.908Z,93.1823
2019-04-16T02:11:38.816Z,94.3313
2019-04-16T02:12:50.953Z,94.6944
2019-04-16T02:13:59.977Z,94.4549
2019-04-16T02:15:09.094Z,94.3725
2019-04-16T02:16:17.968Z,94.1955
2019-04-16T02:17:27.054Z,93.4157
2019-04-16T02:18:36.917Z,92.0439
2019-04-16T02:19:45.262Z,91.7906
2019-04-16T02:20:52.846Z,92.6513
2019-04-16T02:22:02.015Z,93.1869
2019-04-16T02:23:13.581Z,94.1543
2019-04-16T02:24:24.297Z,91.4946
2019-04-16T02:25:33.947Z,90.7195
2019-04-16T02:26:42.972Z,92.3583
2019-04-16T02:27:54.222Z,94.5663
2019-04-16T02:29:04.965Z,95.0469
2019-04-16T02:30:13.018Z,95.7916
2019-04-16T02:31:21.294Z,95.5489
2019-04-16T02:32:30.043Z,95.4360
2019-04-16T02:33:38.979Z,95.3948
2019-04-16T02:34:47.299Z,95.6725
2019-04-16T02:35:55.978Z,95.7320
2019-04-16T02:37:04.937Z,95.4269
2019-04-16T02:38:14.182Z,95.4757
2019-04-16T02:39:46.288Z,95.8328
2019-04-16T02:40:36.905Z,96.0723
2019-04-16T02:41:45.965Z,96.2905
2019-04-16T02:42:54.969Z,96.5713
2019-04-16T02:44:04.026Z,95.3399
2019-04-16T02:45:13.168Z,95.4574
2019-04-16T02:46:22.066Z,96.1227
2019-04-16T02:47:30.982Z,96.3775
2019-04-16T02:48:38.935Z,96.8093
2019-04-16T02:49:47.298Z,97.2808
2019-04-16T02:50:55.311Z,97.8241
2019-04-16T02:52:04.017Z,97.9202
2019-04-16T02:53:13.113Z,97.4533
2019-04-16T02:54:21.929Z,96.3836
2019-04-16T02:55:30.919Z,96.0754
2019-04-16T02:56:39.398Z,95.6970
2019-04-16T02:57:48.046Z,95.5215
2019-04-16T02:58:56.299Z,95.3796
2019-04-16T03:00:05.384Z,96.0296
2019-04-16T03:01:13.295Z,95.8556
2019-04-16T03:02:23.091Z,96.1456
2019-04-16T03:03:32.635Z,95.7427
2019-04-16T03:04:41.857Z,95.8968
2019-04-16T03:05:50.996Z,96.5896
2019-04-16T03:07:02.784Z,96.3012
2019-04-16T03:08:12.265Z,96.2859
2019-04-16T03:09:21.000Z,96.5652
2019-04-16T03:10:29.357Z,96.0433
2019-04-16T03:11:37.383Z,95.3841
2019-04-16T03:12:46.131Z,95.7366
2019-04-16T03:13:58.288Z,95.9121
2019-04-16T03:15:07.294Z,95.0881
2019-04-16T03:16:14.919Z,95.1965
2019-04-16T03:17:24.182Z,94.8257
2019-04-16T03:18:33.168Z,95.3170
2019-04-16T03:19:41.290Z,95.7229
2019-04-16T03:20:52.474Z,95.4711
2019-04-16T03:22:03.736Z,96.2493
2019-04-16T03:23:12.283Z,96.6766
2019-04-16T03:24:20.950Z,96.7117
2019-04-16T03:25:30.034Z,96.7392
2019-04-16T03:26:38.913Z,96.3226
2019-04-16T03:27:47.932Z,96.2173
2019-04-16T03:28:59.133Z,95.5550
2019-04-16T03:30:07.365Z,96.4508
2019-04-16T03:31:22.287Z,96.8460
2019-04-16T03:32:35.308Z,97.0092
2019-04-16T03:33:50.308Z,96.3333
2019-04-16T03:34:57.278Z,96.2692
2019-04-16T03:36:06.090Z,96.4508
2019-04-16T03:37:14.297Z,96.8856
2019-04-16T03:38:23.203Z,95.5947
2019-04-16T03:39:32.466Z,94.7585
2019-04-16T03:40:39.917Z,93.9208
2019-04-16T03:41:48.288Z,92.5093
2019-04-16T03:42:59.005Z,92.5154
2019-04-16T03:44:09.002Z,91.8730
2019-04-16T03:45:17.276Z,92.7932
2019-04-16T03:46:26.258Z,93.0129
2019-04-16T03:47:35.014Z,92.9534
2019-04-16T03:48:44.020Z,91.9936
2019-04-16T03:49:56.400Z,91.9417
2019-04-16T03:51:06.476Z,95.3384
2019-04-16T03:52:15.163Z,96.0220
2019-04-16T03:53:25.086Z,96.2417
2019-04-16T03:54:34.998Z,96.7132
2019-04-16T03:55:43.933Z,96.7132
2019-04-16T03:56:52.253Z,96.5377
2019-04-16T03:58:05.171Z,96.6766
2019-04-16T03:59:13.887Z,97.2931
2019-04-16T04:00:22.309Z,97.2976
2019-04-16T04:01:30.977Z,97.3541
2019-04-16T04:02:39.881Z,97.3449
2019-04-16T04:03:48.288Z,97.5219
2019-04-16T04:04:57.628Z,97.6654
2019-04-16T04:06:09.402Z,97.9767
2019-04-16T04:07:18.290Z,98.0499
2019-04-16T04:08:27.008Z,97.9522
2019-04-16T04:09:36.005Z,97.6791
2019-04-16T04:10:44.999Z,97.3938
2019-04-16T04:11:53.986Z,97.4182
2019-04-16T04:13:04.921Z,96.9177
2019-04-16T04:14:13.284Z,96.2539
2019-04-16T04:15:25.924Z,96.8322
2019-04-16T04:16:35.948Z,96.7498
2019-04-16T04:17:45.310Z,96.7910
2019-04-16T04:18:53.905Z,96.3241
2019-04-16T04:20:02.930Z,95.9564
2019-04-16T04:21:11.993Z,96.7590
2019-04-16T04:22:22.720Z,97.2488
2019-04-16T04:23:34.291Z,96.9818
2019-04-16T04:24:43.055Z,97.2885
2019-04-16T04:25:51.285Z,97.3251
2019-04-16T04:26:59.273Z,97.4350
2019-04-16T04:28:08.249Z,97.2244
2019-04-16T04:29:16.957Z,96.3378
2019-04-16T04:30:28.906Z,97.2107
2019-04-16T04:31:38.964Z,96.0449
2019-04-16T04:32:51.013Z,96.7910
2019-04-16T04:34:00.013Z,96.2737
2019-04-16T04:35:09.193Z,96.5972
2019-04-16T04:36:19.602Z,96.6628
2019-04-16T04:37:30.904Z,97.1801
2019-04-16T04:38:40.309Z,97.0916
2019-04-16T04:39:48.313Z,97.1847
2019-04-16T04:40:59.623Z,97.4685
2019-04-16T04:42:09.009Z,97.5402
2019-04-16T04:43:17.281Z,97.6776
2019-04-16T04:44:25.961Z,97.8241
2019-04-16T04:45:37.634Z,97.9248
2019-04-16T04:46:48.965Z,97.9660
2019-04-16T04:47:58.065Z,97.8439
2019-04-16T04:49:07.204Z,97.2808
2019-04-16T04:50:15.946Z,96.3363
2019-04-16T04:51:24.295Z,95.4986
2019-04-16T04:52:32.941Z,95.1385
2019-04-16T04:53:41.940Z,94.5708
2019-04-16T04:54:51.409Z,95.1278
2019-04-16T04:56:03.963Z,94.9264
2019-04-16T04:57:12.953Z,95.1782
2019-04-16T04:58:21.918Z,95.6863
2019-04-16T04:59:30.398Z,95.8190
2019-04-16T05:00:40.425Z,96.0891
2019-04-16T05:01:49.340Z,95.9655
2019-04-16T05:02:57.267Z,95.6146
2019-04-16T05:04:05.681Z,95.1049
2019-04-16T05:05:15.254Z,95.0332
2019-04-16T05:06:26.735Z,94.9828
2019-04-16T05:07:36.464Z,95.0362
2019-04-16T05:08:45.008Z,94.9508
2019-04-16T05:09:53.955Z,94.9859
2019-04-16T05:11:03.209Z,94.9554
2019-04-16T05:12:11.931Z,94.9691
2019-04-16T05:13:23.958Z,95.1507
2019-04-16T05:14:33.945Z,94.9828
2019-04-16T05:15:43.241Z,94.9096
2019-04-16T05:16:51.384Z,94.9493
2019-04-16T05:18:00.053Z,95.1568
2019-04-16T05:19:13.839Z,94.9447
2019-04-16T05:20:22.392Z,94.8165
2019-04-16T05:21:31.147Z,94.9050
2019-04-16T05:22:40.985Z,95.1247
2019-04-16T05:23:50.007Z,94.9355
2019-04-16T05:25:01.344Z,95.1553
2019-04-16T05:26:11.797Z,94.9996
2019-04-16T05:27:21.165Z,94.9599
2019-04-16T05:28:30.011Z,94.6441
2019-04-16T05:29:38.302Z,94.7448
2019-04-16T05:30:51.860Z,95.3262
2019-04-16T05:32:00.278Z,95.4864
2019-04-16T05:33:08.268Z,95.3628
2019-04-16T05:34:18.815Z,95.1385
2019-04-16T05:35:28.233Z,95.3857
2019-04-16T05:36:36.390Z,95.1659
2019-04-16T05:37:43.929Z,94.9325
2019-04-16T05:38:55.445Z,95.0515
2019-04-16T05:40:05.932Z,94.6471
2019-04-16T05:41:20.264Z,93.7499
2019-04-16T05:42:27.307Z,93.5027
2019-04-16T05:43:36.231Z,93.7148
2019-04-16T05:44:44.273Z,93.3654
2019-04-16T05:45:52.336Z,93.4890
2019-04-16T05:47:01.145Z,92.7886
2019-04-16T05:48:11.186Z,91.9020
2019-04-16T05:49:24.855Z,93.4539
2019-04-16T05:50:33.293Z,93.8293
2019-04-16T05:51:42.668Z,93.1472
2019-04-16T05:52:52.168Z,92.6711
2019-04-16T05:54:00.370Z,92.6299
2019-04-16T05:55:09.063Z,92.4910
2019-04-16T05:56:22.641Z,91.7083
2019-04-16T05:57:31.371Z,91.4199
2019-04-16T05:58:39.910Z,91.3512
2019-04-16T05:59:49.029Z,90.8171
2019-04-16T06:00:57.988Z,90.9041
2019-04-16T06:02:07.137Z,90.9026
2019-04-16T06:03:20.669Z,91.5892
2019-04-16T06:04:30.023Z,92.5460
2019-04-16T06:05:37.972Z,90.1015
2019-04-16T06:06:47.159Z,85.4841
2019-04-16T06:07:55.576Z,85.2445
2019-04-16T06:09:02.755Z,84.6220
2019-04-16T06:10:17.057Z,85.2277
2019-04-16T06:11:29.224Z,85.4475
2019-04-16T06:12:40.167Z,85.8732
2019-04-16T06:13:48.948Z,84.6265
2019-04-16T06:14:57.997Z,84.2145
2019-04-16T06:16:06.925Z,84.6357
2019-04-16T06:17:15.965Z,84.4541
2019-04-16T06:18:24.894Z,85.0309
2019-04-16T06:19:34.441Z,82.6535
2019-04-16T06:20:43.059Z,82.8611
2019-04-16T06:24:08.376Z,81.3687
2019-04-16T06:24:08.376Z,83.4745
2019-04-16T06:25:18.183Z,79.6155
2019-04-16T06:26:27.958Z,77.7325
2019-04-16T06:27:38.668Z,77.8195
2019-04-16T06:28:48.333Z,79.5087
2019-04-16T06:30:01.210Z,84.8783
2019-04-16T06:31:11.337Z,80.2609
2019-04-16T06:32:22.154Z,78.7137
2019-04-16T06:33:31.674Z,81.5930
2019-04-16T06:34:41.933Z,82.3438
2019-04-16T06:35:51.835Z,85.6428
2019-04-16T06:37:01.958Z,86.0975
2019-04-16T06:38:12.053Z,86.8711
2019-04-16T06:39:22.045Z,87.6493
2019-04-16T06:40:32.852Z,87.1534
2019-04-16T06:41:47.665Z,87.6478
2019-04-16T06:42:58.001Z,82.9847
2019-04-16T06:44:09.878Z,84.2237
2019-04-16T06:45:20.499Z,87.5029
2019-04-16T06:46:29.755Z,87.4525
2019-04-16T06:47:41.782Z,79.0829
2019-04-16T06:48:51.290Z,80.1770
2019-04-16T06:50:00.306Z,77.8012
2019-04-16T06:51:12.507Z,78.7594
2019-04-16T06:52:21.909Z,76.2829
2019-04-16T06:53:32.317Z,76.1044
2019-04-16T06:54:45.310Z,78.6892
2019-04-16T06:55:56.786Z,77.2473
2019-04-16T06:57:05.949Z,78.3475
2019-04-16T06:58:16.428Z,75.0408
2019-04-16T06:59:29.337Z,72.7337
2019-04-16T07:00:40.005Z,74.4213
2019-04-16T07:01:50.068Z,74.5693
2019-04-16T07:03:02.468Z,75.6268
2019-04-16T07:04:13.005Z,76.0082
2019-04-16T07:05:33.266Z,76.6079
2019-04-16T07:06:43.730Z,75.1019
2019-04-16T07:07:54.237Z,76.0891
2019-04-16T07:09:04.390Z,75.7153
2019-04-16T07:10:15.047Z,72.9580
2019-04-16T07:11:26.161Z,72.8511
2019-04-16T07:13:58.362Z,72.1508
2019-04-16T07:15:07.699Z,69.6834
2019-04-16T07:16:16.330Z,69.1844
2019-04-16T07:17:26.052Z,67.9988
2019-04-16T07:18:38.579Z,66.2928
2019-04-16T07:19:48.289Z,70.0267
2019-04-16T07:20:57.355Z,74.7753
2019-04-16T07:22:07.040Z,74.9264
2019-04-16T07:23:17.767Z,75.8068
2019-04-16T07:24:30.807Z,74.0703
2019-04-16T07:25:44.144Z,75.7565
2019-04-16T07:26:56.618Z,77.2213
2019-04-16T07:28:09.272Z,77.2839
2019-04-16T07:29:24.307Z,76.1776
2019-04-16T07:30:38.419Z,76.8811
2019-04-16T07:31:53.251Z,76.8124
2019-04-16T07:33:05.524Z,76.5606
2019-04-16T07:34:14.289Z,76.8734
2019-04-16T07:35:27.889Z,76.5072
2019-04-16T07:36:42.101Z,77.2946
2019-04-16T07:37:53.018Z,78.1720
2019-04-16T07:39:07.631Z,76.1822
2019-04-16T07:40:16.369Z,74.6502
2019-04-16T07:41:27.295Z,75.3216
2019-04-16T07:42:51.692Z,77.2290
2019-04-16T07:43:57.218Z,76.3699
2019-04-16T07:45:11.431Z,76.4477
2019-04-16T07:46:21.392Z,72.6268
2019-04-16T07:47:32.966Z,72.4254
2019-04-16T07:48:45.984Z,74.1192
2019-04-16T07:49:59.855Z,72.1874
2019-04-16T07:51:10.360Z,74.2977
2019-04-16T07:52:21.334Z,67.2206
2019-04-16T07:53:31.538Z,66.8269
2019-04-16T07:54:40.311Z,67.6005
2019-04-16T07:55:49.431Z,69.1127
2019-04-16T07:56:58.314Z,68.8884
2019-04-16T07:58:08.365Z,64.7959
2019-04-16T07:59:19.026Z,64.9836
2019-04-16T08:00:29.119Z,66.5126
2019-04-16T08:01:39.932Z,68.5161
2019-04-16T08:02:53.867Z,68.4672
2019-04-16T08:04:03.612Z,69.6986
2019-04-16T08:05:12.328Z,68.0232
2019-04-16T08:06:21.334Z,69.3874
2019-04-16T08:07:32.251Z,69.0440
2019-04-16T08:08:42.646Z,70.1244
2019-04-16T08:09:51.302Z,67.1214
2019-04-16T08:12:33.326Z,68.7144
2019-04-16T08:13:45.764Z,68.1498
2019-04-16T08:14:54.362Z,69.2805
2019-04-16T08:16:04.317Z,69.4270
2019-04-16T08:17:14.031Z,67.5135
2019-04-16T08:19:44.797Z,72.6085
2019-04-16T08:21:01.701Z,68.4245
2019-04-16T08:22:15.530Z,69.1020
2019-04-16T08:23:25.077Z,70.0603
2019-04-16T08:24:34.393Z,68.9113
2019-04-16T08:25:44.761Z,69.0074
2019-04-16T08:26:56.254Z,68.6626
2019-04-16T08:28:09.443Z,67.5105
2019-04-16T08:29:18.501Z,68.4489
2019-04-16T08:30:27.391Z,68.4840
2019-04-16T08:33:05.481Z,66.9139
2019-04-16T08:35:39.339Z,65.3391
2019-04-16T08:38:20.674Z,64.5747
2019-04-16T08:39:29.375Z,65.9083
2019-04-16T08:42:06.817Z,65.2857
2019-04-16T08:43:22.356Z,63.2563
2019-04-16T08:44:35.796Z,62.7680
2019-04-16T08:49:54.081Z,64.2680
2019-04-16T08:52:26.290Z,62.0584
2019-04-16T08:54:55.400Z,66.0502
2019-04-16T08:56:05.020Z,63.4318
2019-04-16T08:57:18.041Z,62.8031
2019-04-16T08:59:54.858Z,63.6957
2019-04-16T09:01:04.296Z,65.0736
2019-04-16T09:02:13.816Z,66.2654
2019-04-16T09:03:26.716Z,63.2883
2019-04-16T09:04:37.311Z,63.5050
2019-04-16T09:05:46.293Z,64.0131
2019-04-16T09:07:09.634Z,64.1596
2019-04-16T09:08:13.943Z,62.0218
2019-04-16T09:09:25.555Z,64.0040
2019-04-16T09:10:34.390Z,63.2334
2019-04-16T09:11:44.194Z,64.3702
2019-04-16T09:13:03.319Z,60.9628
2019-04-16T09:14:16.841Z,62.0340
2019-04-16T09:15:29.343Z,63.0884
2019-04-16T09:16:45.219Z,66.1723
2019-04-16T09:17:57.093Z,64.4755
2019-04-16T09:19:08.593Z,60.7080
2019-04-16T09:20:17.272Z,64.2954
2019-04-16T09:21:31.255Z,61.8692
2019-04-16T09:24:08.862Z,60.1221
2019-04-16T09:25:22.987Z,58.5473
2019-04-16T09:26:36.437Z,58.8678
2019-04-16T09:30:30.925Z,54.4030
2019-04-16T09:33:01.886Z,53.3654
2019-04-16T09:34:10.481Z,58.8540
2019-04-16T09:35:20.752Z,58.7427
2019-04-16T09:40:36.588Z,60.6073
2019-04-16T09:42:01.755Z,58.6847
2019-04-16T09:43:17.441Z,52.1187
2019-04-16T09:47:16.733Z,53.1914
2019-04-16T09:52:38.562Z,55.9701
2019-04-16T09:55:19.634Z,58.7198
2019-04-16T09:56:30.116Z,53.8552
2019-04-16T09:57:39.994Z,56.5408
2019-04-16T10:03:01.356Z,58.3642
2019-04-16T10:04:15.655Z,55.8541
2019-04-16T10:09:37.586Z,55.5474
2019-04-16T10:13:35.747Z,53.0312
2019-04-16T10:14:48.576Z,55.4147
2019-04-16T10:15:57.403Z,55.2178
2019-04-16T10:17:06.341Z,56.1700
2019-04-16T10:19:56.724Z,56.3348
2019-04-16T10:21:08.474Z,53.4874
2019-04-16T10:22:17.310Z,51.7800
2019-04-16T10:23:29.673Z,52.1462
2019-04-16T10:24:59.775Z,52.4361
2019-04-16T10:26:08.348Z,52.9442
2019-04-16T10:28:39.346Z,50.8141
2019-04-16T10:31:14.699Z,52.6146
2019-04-16T10:38:16.410Z,50.4265
2019-04-16T10:39:26.358Z,50.7637
2019-04-16T10:40:39.933Z,51.8715
2019-04-16T10:43:09.336Z,51.7845
2019-04-16T10:45:51.170Z,47.4418
2019-04-16T10:47:01.492Z,49.3919
2019-04-16T10:49:30.473Z,50.9422
2019-04-16T10:52:04.855Z,50.3212
2019-04-16T10:54:39.817Z,50.5043
2019-04-16T10:55:50.557Z,48.4657
2019-04-16T10:56:59.313Z,47.2206
2019-04-16T10:58:10.147Z,48.7648
2019-04-16T10:59:23.027Z,46.5522
2019-04-16T11:00:39.373Z,51.4870
2019-04-16T11:04:35.953Z,46.2043
2019-04-16T11:05:45.372Z,50.9194
2019-04-16T11:06:58.927Z,51.3954
2019-04-16T11:08:09.431Z,49.5964
2019-04-16T11:09:22.097Z,52.1691
2019-04-16T11:10:31.345Z,49.9916
2019-04-16T11:11:44.898Z,49.7063
2019-04-16T11:12:54.317Z,51.3100
2019-04-16T11:14:03.376Z,49.7429
2019-04-16T11:15:35.246Z,48.3574
2019-04-16T11:16:45.032Z,47.2526
2019-04-16T11:19:24.561Z,47.5563
2019-04-16T11:20:34.643Z,50.5394
2019-04-16T11:21:44.713Z,50.3883
2019-04-16T11:22:56.041Z,49.5109
2019-04-16T11:24:08.191Z,49.7383
2019-04-16T11:25:21.218Z,47.5563
2019-04-16T11:26:32.950Z,49.3217
2019-04-16T11:27:42.445Z,49.0700
2019-04-16T11:31:35.345Z,51.9921
2019-04-16T11:32:43.667Z,49.6880
2019-04-16T11:39:29.250Z,48.6259
2019-04-16T11:42:13.101Z,46.1219
2019-04-16T11:43:25.747Z,46.8925
2019-04-16T11:44:38.178Z,45.1209
2019-04-16T11:45:48.136Z,45.1072
2019-04-16T11:46:58.409Z,43.5584
2019-04-16T11:48:07.381Z,44.3366
2019-04-16T11:49:18.294Z,44.9378
2019-04-16T11:50:29.650Z,43.7018
2019-04-16T11:51:38.250Z,44.7898
2019-04-16T11:52:48.364Z,46.5950
2019-04-16T11:54:00.699Z,49.7658
2019-04-16T11:55:10.067Z,50.3670
2019-04-16T11:56:22.497Z,52.0516
2019-04-16T11:57:37.069Z,45.9083
2019-04-16T11:58:47.541Z,51.5694
2019-04-16T12:00:06.714Z,46.0273
2019-04-16T12:01:11.354Z,47.0008
2019-04-16T12:02:20.557Z,47.4266
2019-04-16T12:03:34.928Z,48.3024
2019-04-16T12:04:55.856Z,48.7099
2019-04-16T12:06:10.623Z,48.5496
2019-04-16T12:07:20.003Z,48.2475
2019-04-16T12:08:30.004Z,47.5746
2019-04-16T12:09:39.358Z,48.6992
2019-04-16T12:10:49.381Z,48.7449
2019-04-16T12:12:00.281Z,47.8386
2019-04-16T12:13:09.909Z,47.3503
2019-04-16T12:14:30.775Z,48.9387
2019-04-16T12:15:36.541Z,50.2968
2019-04-16T12:16:46.101Z,51.0979
2019-04-16T12:17:55.487Z,47.0344
2019-04-16T12:19:05.243Z,45.7053
2019-04-16T12:20:14.386Z,45.8930
2019-04-16T12:21:24.244Z,49.3462
2019-04-16T12:22:36.962Z,48.5298
2019-04-16T12:23:47.090Z,49.1997
2019-04-16T12:24:57.530Z,49.6437
2019-04-16T12:26:09.404Z,50.0877
2019-04-16T12:27:19.747Z,48.6030
2019-04-16T12:28:30.123Z,49.3675
2019-04-16T12:29:41.435Z,50.7729
2019-04-16T12:30:51.365Z,47.5837
2019-04-16T12:32:03.588Z,50.0374
2019-04-16T12:33:15.198Z,50.2663
2019-04-16T12:34:25.736Z,53.5714
2019-04-16T12:35:35.657Z,47.9713
2019-04-16T12:36:46.859Z,47.3945
2019-04-16T12:37:58.433Z,46.1830
2019-04-16T12:39:10.140Z,44.8188
2019-04-16T12:40:21.172Z,43.3661
2019-04-16T12:41:30.298Z,45.9266
2019-04-16T12:42:42.875Z,46.8818
2019-04-16T12:43:51.789Z,44.2969
